sensor_id;sensor_type;location;lat;lon;timestamp;temperature;humidity
20740;DHT22;10530;49.968;19.844;2023-06-26T00:03:03;14.80;99.90
20740;DHT22;10530;49.968;19.844;2023-06-26T00:08:06;14.70;99.90
20740;DHT22;10530;49.968;19.844;2023-06-26T00:13:09;14.60;99.90
20740;DHT22;10530;49.968;19.844;2023-06-26T00:18:15;14.50;99.90
20740;DHT22;10530;49.968;19.844;2023-06-26T00:23:18;14.50;99.90
20740;DHT22;10530;49.968;19.844;2023-06-26T00:28:21;14.50;99.90
20740;DHT22;10530;49.968;19.844;2023-06-26T00:33:23;14.40;99.90
20740;DHT22;10530;49.968;19.844;2023-06-26T00:38:26;14.20;99.90
20740;DHT22;10530;49.968;19.844;2023-06-26T00:43:29;14.10;99.90
20740;DHT22;10530;49.968;19.844;2023-06-26T00:48:32;14.00;99.90
20740;DHT22;10530;49.968;19.844;2023-06-26T00:53:35;14.00;99.90
20740;DHT22;10530;49.968;19.844;2023-06-26T00:58:37;14.00;99.90
20740;DHT22;10530;49.968;19.844;2023-06-26T01:03:40;13.80;99.90
20740;DHT22;10530;49.968;19.844;2023-06-26T01:08:44;13.80;99.90
20740;DHT22;10530;49.968;19.844;2023-06-26T01:13:47;13.70;99.90
20740;DHT22;10530;49.968;19.844;2023-06-26T01:18:51;13.60;99.90
20740;DHT22;10530;49.968;19.844;2023-06-26T01:29:07;13.70;99.90
20740;DHT22;10530;49.968;19.844;2023-06-26T01:34:13;13.60;99.90
20740;DHT22;10530;49.968;19.844;2023-06-26T01:39:18;13.60;99.90
20740;DHT22;10530;49.968;19.844;2023-06-26T01:44:32;13.50;99.90
20740;DHT22;10530;49.968;19.844;2023-06-26T02:00:26;13.40;99.90
20740;DHT22;10530;49.968;19.844;2023-06-26T02:05:29;13.40;99.90
20740;DHT22;10530;49.968;19.844;2023-06-26T02:10:34;13.30;99.90
20740;DHT22;10530;49.968;19.844;2023-06-26T02:15:39;13.20;99.90
20740;DHT22;10530;49.968;19.844;2023-06-26T02:20:43;13.10;99.90
20740;DHT22;10530;49.968;19.844;2023-06-26T02:25:46;13.10;99.90
20740;DHT22;10530;49.968;19.844;2023-06-26T02:30:49;13.10;99.90
20740;DHT22;10530;49.968;19.844;2023-06-26T02:35:52;13.10;99.90
20740;DHT22;10530;49.968;19.844;2023-06-26T02:40:55;13.10;99.90
20740;DHT22;10530;49.968;19.844;2023-06-26T02:45:58;13.20;99.90
20740;DHT22;10530;49.968;19.844;2023-06-26T02:51:00;13.20;99.90
20740;DHT22;10530;49.968;19.844;2023-06-26T02:56:05;13.10;99.90
20740;DHT22;10530;49.968;19.844;2023-06-26T03:01:10;13.10;99.90
20740;DHT22;10530;49.968;19.844;2023-06-26T03:06:15;13.20;99.90
20740;DHT22;10530;49.968;19.844;2023-06-26T03:11:19;13.20;99.90
20740;DHT22;10530;49.968;19.844;2023-06-26T03:16:22;13.20;99.90
20740;DHT22;10530;49.968;19.844;2023-06-26T03:21:25;13.30;99.90
20740;DHT22;10530;49.968;19.844;2023-06-26T03:26:28;13.40;99.90
20740;DHT22;10530;49.968;19.844;2023-06-26T03:31:34;13.40;99.90
20740;DHT22;10530;49.968;19.844;2023-06-26T03:36:38;13.50;99.90
20740;DHT22;10530;49.968;19.844;2023-06-26T03:41:41;13.60;99.90
20740;DHT22;10530;49.968;19.844;2023-06-26T03:46:44;13.70;99.90
20740;DHT22;10530;49.968;19.844;2023-06-26T03:51:47;13.80;99.90
20740;DHT22;10530;49.968;19.844;2023-06-26T03:56:50;13.90;99.90
20740;DHT22;10530;49.968;19.844;2023-06-26T04:01:53;14.10;99.90
20740;DHT22;10530;49.968;19.844;2023-06-26T04:06:56;14.40;99.90
20740;DHT22;10530;49.968;19.844;2023-06-26T04:12:02;14.60;99.90
20740;DHT22;10530;49.968;19.844;2023-06-26T04:17:05;14.90;99.90
20740;DHT22;10530;49.968;19.844;2023-06-26T04:22:08;15.10;99.90
20740;DHT22;10530;49.968;19.844;2023-06-26T04:27:11;15.40;99.90
20740;DHT22;10530;49.968;19.844;2023-06-26T04:32:16;15.60;99.90
20740;DHT22;10530;49.968;19.844;2023-06-26T04:37:19;15.80;99.90
20740;DHT22;10530;49.968;19.844;2023-06-26T04:42:22;16.10;99.90
20740;DHT22;10530;49.968;19.844;2023-06-26T04:47:25;16.30;99.90
20740;DHT22;10530;49.968;19.844;2023-06-26T04:52:28;16.60;99.90
20740;DHT22;10530;49.968;19.844;2023-06-26T04:57:31;16.90;99.90
20740;DHT22;10530;49.968;19.844;2023-06-26T05:02:34;17.10;99.90
20740;DHT22;10530;49.968;19.844;2023-06-26T05:07:38;17.40;99.90
20740;DHT22;10530;49.968;19.844;2023-06-26T05:12:41;17.70;99.90
20740;DHT22;10530;49.968;19.844;2023-06-26T05:17:44;17.80;99.90
20740;DHT22;10530;49.968;19.844;2023-06-26T05:22:47;18.00;99.90
20740;DHT22;10530;49.968;19.844;2023-06-26T05:27:50;18.40;99.90
20740;DHT22;10530;49.968;19.844;2023-06-26T05:32:54;18.70;99.90
20740;DHT22;10530;49.968;19.844;2023-06-26T05:37:58;18.80;99.90
20740;DHT22;10530;49.968;19.844;2023-06-26T05:43:01;19.20;99.90
20740;DHT22;10530;49.968;19.844;2023-06-26T05:48:05;19.40;99.90
20740;DHT22;10530;49.968;19.844;2023-06-26T05:53:08;19.80;99.90
20740;DHT22;10530;49.968;19.844;2023-06-26T05:58:12;20.10;99.90
20740;DHT22;10530;49.968;19.844;2023-06-26T06:03:15;20.30;99.90
20740;DHT22;10530;49.968;19.844;2023-06-26T06:08:18;20.70;99.90
20740;DHT22;10530;49.968;19.844;2023-06-26T06:13:21;21.00;99.90
20740;DHT22;10530;49.968;19.844;2023-06-26T06:18:24;21.20;99.90
20740;DHT22;10530;49.968;19.844;2023-06-26T06:23:27;21.20;99.90
20740;DHT22;10530;49.968;19.844;2023-06-26T06:28:30;21.60;99.90
20740;DHT22;10530;49.968;19.844;2023-06-26T06:33:33;21.90;99.90
20740;DHT22;10530;49.968;19.844;2023-06-26T06:38:37;22.20;99.90
20740;DHT22;10530;49.968;19.844;2023-06-26T06:43:40;22.60;99.90
20740;DHT22;10530;49.968;19.844;2023-06-26T06:48:43;22.70;99.90
20740;DHT22;10530;49.968;19.844;2023-06-26T06:53:46;23.10;99.90
20740;DHT22;10530;49.968;19.844;2023-06-26T06:58:49;23.40;99.90
20740;DHT22;10530;49.968;19.844;2023-06-26T07:03:52;23.80;99.90
20740;DHT22;10530;49.968;19.844;2023-06-26T07:08:56;24.10;99.90
20740;DHT22;10530;49.968;19.844;2023-06-26T07:13:59;24.10;99.90
20740;DHT22;10530;49.968;19.844;2023-06-26T07:19:03;23.80;97.80
20740;DHT22;10530;49.968;19.844;2023-06-26T07:24:08;24.50;99.90
20740;DHT22;10530;49.968;19.844;2023-06-26T07:29:11;24.90;95.00
20740;DHT22;10530;49.968;19.844;2023-06-26T07:34:14;25.30;85.60
20740;DHT22;10530;49.968;19.844;2023-06-26T07:39:17;25.00;69.10
20740;DHT22;10530;49.968;19.844;2023-06-26T07:44:25;24.80;75.10
20740;DHT22;10530;49.968;19.844;2023-06-26T07:49:28;25.00;77.50
20740;DHT22;10530;49.968;19.844;2023-06-26T07:54:31;25.60;75.20
20740;DHT22;10530;49.968;19.844;2023-06-26T07:59:35;25.50;64.10
20740;DHT22;10530;49.968;19.844;2023-06-26T08:04:38;25.90;59.00
20740;DHT22;10530;49.968;19.844;2023-06-26T08:09:41;26.00;56.80
20740;DHT22;10530;49.968;19.844;2023-06-26T08:14:44;26.40;55.40
20740;DHT22;10530;49.968;19.844;2023-06-26T08:19:47;26.40;52.70
20740;DHT22;10530;49.968;19.844;2023-06-26T08:24:50;26.80;46.50
20740;DHT22;10530;49.968;19.844;2023-06-26T08:29:53;27.00;43.40
20740;DHT22;10530;49.968;19.844;2023-06-26T08:34:56;27.00;42.30
20740;DHT22;10530;49.968;19.844;2023-06-26T08:40:02;27.60;37.20
20740;DHT22;10530;49.968;19.844;2023-06-26T08:45:06;27.60;36.70
20740;DHT22;10530;49.968;19.844;2023-06-26T08:50:13;27.70;33.30
20740;DHT22;10530;49.968;19.844;2023-06-26T08:55:18;28.40;27.40
20740;DHT22;10530;49.968;19.844;2023-06-26T09:00:21;29.10;25.70
20740;DHT22;10530;49.968;19.844;2023-06-26T09:05:26;29.20;22.90
20740;DHT22;10530;49.968;19.844;2023-06-26T09:10:29;29.30;16.90
20740;DHT22;10530;49.968;19.844;2023-06-26T09:15:42;29.30;17.60
20740;DHT22;10530;49.968;19.844;2023-06-26T09:20:45;29.40;17.00
20740;DHT22;10530;49.968;19.844;2023-06-26T09:25:49;30.00;18.70
20740;DHT22;10530;49.968;19.844;2023-06-26T09:30:53;29.50;17.50
20740;DHT22;10530;49.968;19.844;2023-06-26T09:35:56;29.30;16.50
20740;DHT22;10530;49.968;19.844;2023-06-26T09:40:59;29.00;14.80
20740;DHT22;10530;49.968;19.844;2023-06-26T09:46:03;29.30;15.90
20740;DHT22;10530;49.968;19.844;2023-06-26T09:51:06;30.10;17.10
20740;DHT22;10530;49.968;19.844;2023-06-26T09:56:16;30.50;14.30
20740;DHT22;10530;49.968;19.844;2023-06-26T10:01:20;27.40;17.80
20740;DHT22;10530;49.968;19.844;2023-06-26T10:06:34;27.90;23.20
20740;DHT22;10530;49.968;19.844;2023-06-26T10:11:47;29.60;14.10
20740;DHT22;10530;49.968;19.844;2023-06-26T10:16:52;30.00;15.30
20740;DHT22;10530;49.968;19.844;2023-06-26T10:21:57;29.70;14.00
20740;DHT22;10530;49.968;19.844;2023-06-26T10:27:08;29.40;14.70
20740;DHT22;10530;49.968;19.844;2023-06-26T10:32:14;30.20;14.90
20740;DHT22;10530;49.968;19.844;2023-06-26T10:37:17;31.10;12.40
20740;DHT22;10530;49.968;19.844;2023-06-26T10:42:34;31.30;11.00
20740;DHT22;10530;49.968;19.844;2023-06-26T10:47:40;31.20;10.30
20740;DHT22;10530;49.968;19.844;2023-06-26T10:52:44;30.60;11.60
20740;DHT22;10530;49.968;19.844;2023-06-26T10:57:47;30.80;13.00
20740;DHT22;10530;49.968;19.844;2023-06-26T11:02:52;31.30;13.80
20740;DHT22;10530;49.968;19.844;2023-06-26T11:08:23;31.10;7.50
20740;DHT22;10530;49.968;19.844;2023-06-26T11:13:47;29.40;16.10
20740;DHT22;10530;49.968;19.844;2023-06-26T11:18:50;28.80;17.20
20740;DHT22;10530;49.968;19.844;2023-06-26T11:23:54;28.70;15.00
20740;DHT22;10530;49.968;19.844;2023-06-26T11:29:00;28.20;14.30
20740;DHT22;10530;49.968;19.844;2023-06-26T11:34:05;27.20;17.00
20740;DHT22;10530;49.968;19.844;2023-06-26T11:39:09;28.00;15.00
20740;DHT22;10530;49.968;19.844;2023-06-26T11:44:13;29.20;15.40
20740;DHT22;10530;49.968;19.844;2023-06-26T11:49:18;30.50;11.10
20740;DHT22;10530;49.968;19.844;2023-06-26T11:54:27;29.80;9.50
20740;DHT22;10530;49.968;19.844;2023-06-26T11:59:38;28.60;15.00
20740;DHT22;10530;49.968;19.844;2023-06-26T12:04:43;27.60;18.40
20740;DHT22;10530;49.968;19.844;2023-06-26T12:09:47;27.30;17.00
20740;DHT22;10530;49.968;19.844;2023-06-26T12:14:51;28.90;19.00
20740;DHT22;10530;49.968;19.844;2023-06-26T12:19:54;30.50;11.80
20740;DHT22;10530;49.968;19.844;2023-06-26T12:24:58;30.50;10.80
20740;DHT22;10530;49.968;19.844;2023-06-26T12:30:03;30.70;8.70
20740;DHT22;10530;49.968;19.844;2023-06-26T12:35:09;31.00;9.10
20740;DHT22;10530;49.968;19.844;2023-06-26T12:40:17;29.80;12.30
20740;DHT22;10530;49.968;19.844;2023-06-26T12:45:26;30.10;10.90
20740;DHT22;10530;49.968;19.844;2023-06-26T12:50:44;30.60;11.90
20740;DHT22;10530;49.968;19.844;2023-06-26T12:55:47;30.00;9.40
20740;DHT22;10530;49.968;19.844;2023-06-26T13:00:50;28.70;12.50
20740;DHT22;10530;49.968;19.844;2023-06-26T13:05:53;28.40;15.00
20740;DHT22;10530;49.968;19.844;2023-06-26T13:10:57;27.60;11.80
20740;DHT22;10530;49.968;19.844;2023-06-26T13:16:00;29.30;11.00
20740;DHT22;10530;49.968;19.844;2023-06-26T13:21:03;30.10;8.10
20740;DHT22;10530;49.968;19.844;2023-06-26T13:26:06;29.70;7.20
20740;DHT22;10530;49.968;19.844;2023-06-26T13:31:09;29.20;11.60
20740;DHT22;10530;49.968;19.844;2023-06-26T13:36:12;30.30;10.60
20740;DHT22;10530;49.968;19.844;2023-06-26T13:41:15;30.50;8.70
20740;DHT22;10530;49.968;19.844;2023-06-26T13:46:19;30.80;10.10
20740;DHT22;10530;49.968;19.844;2023-06-26T13:51:22;31.20;8.40
20740;DHT22;10530;49.968;19.844;2023-06-26T13:56:25;31.10;7.60
20740;DHT22;10530;49.968;19.844;2023-06-26T14:01:27;31.60;8.70
20740;DHT22;10530;49.968;19.844;2023-06-26T14:06:30;31.10;9.10
20740;DHT22;10530;49.968;19.844;2023-06-26T14:11:35;30.60;9.30
20740;DHT22;10530;49.968;19.844;2023-06-26T14:16:38;30.60;7.10
20740;DHT22;10530;49.968;19.844;2023-06-26T14:21:43;30.80;5.50
20740;DHT22;10530;49.968;19.844;2023-06-26T14:26:46;31.10;9.90
20740;DHT22;10530;49.968;19.844;2023-06-26T14:31:49;31.20;10.00
20740;DHT22;10530;49.968;19.844;2023-06-26T14:36:54;29.90;9.50
20740;DHT22;10530;49.968;19.844;2023-06-26T14:41:57;30.20;11.40
20740;DHT22;10530;49.968;19.844;2023-06-26T14:47:00;29.20;9.20
20740;DHT22;10530;49.968;19.844;2023-06-26T14:52:04;30.10;11.20
20740;DHT22;10530;49.968;19.844;2023-06-26T14:57:07;29.60;8.90
20740;DHT22;10530;49.968;19.844;2023-06-26T15:02:10;29.70;8.60
20740;DHT22;10530;49.968;19.844;2023-06-26T15:07:13;29.00;8.80
20740;DHT22;10530;49.968;19.844;2023-06-26T15:12:16;29.10;9.30
20740;DHT22;10530;49.968;19.844;2023-06-26T15:17:19;29.20;9.20
20740;DHT22;10530;49.968;19.844;2023-06-26T15:22:23;29.70;8.50
20740;DHT22;10530;49.968;19.844;2023-06-26T15:27:28;29.60;8.00
20740;DHT22;10530;49.968;19.844;2023-06-26T15:32:31;29.30;10.20
20740;DHT22;10530;49.968;19.844;2023-06-26T15:37:34;29.50;9.40
20740;DHT22;10530;49.968;19.844;2023-06-26T15:42:48;29.40;8.80
20740;DHT22;10530;49.968;19.844;2023-06-26T15:47:52;29.70;7.20
20740;DHT22;10530;49.968;19.844;2023-06-26T15:52:55;29.80;9.00
20740;DHT22;10530;49.968;19.844;2023-06-26T15:57:58;28.50;8.50
20740;DHT22;10530;49.968;19.844;2023-06-26T16:03:03;29.00;7.90
20740;DHT22;10530;49.968;19.844;2023-06-26T16:08:06;28.80;9.00
20740;DHT22;10530;49.968;19.844;2023-06-26T16:13:09;28.20;10.00
20740;DHT22;10530;49.968;19.844;2023-06-26T16:18:12;27.80;10.00
20740;DHT22;10530;49.968;19.844;2023-06-26T16:23:15;28.00;10.30
20740;DHT22;10530;49.968;19.844;2023-06-26T16:28:18;28.10;9.80
20740;DHT22;10530;49.968;19.844;2023-06-26T16:33:21;28.10;9.20
20740;DHT22;10530;49.968;19.844;2023-06-26T16:38:24;27.90;10.30
20740;DHT22;10530;49.968;19.844;2023-06-26T16:43:27;28.00;11.40
20740;DHT22;10530;49.968;19.844;2023-06-26T16:48:30;28.00;12.10
20740;DHT22;10530;49.968;19.844;2023-06-26T16:53:32;27.60;15.00
20740;DHT22;10530;49.968;19.844;2023-06-26T16:58:35;27.60;12.80
20740;DHT22;10530;49.968;19.844;2023-06-26T17:03:38;27.10;11.00
20740;DHT22;10530;49.968;19.844;2023-06-26T17:08:41;27.00;12.10
20740;DHT22;10530;49.968;19.844;2023-06-26T17:13:44;26.80;12.40
20740;DHT22;10530;49.968;19.844;2023-06-26T17:18:48;26.60;13.40
20740;DHT22;10530;49.968;19.844;2023-06-26T17:23:51;26.40;13.90
20740;DHT22;10530;49.968;19.844;2023-06-26T17:28:54;26.10;15.00
20740;DHT22;10530;49.968;19.844;2023-06-26T17:33:57;25.90;18.60
20740;DHT22;10530;49.968;19.844;2023-06-26T17:39:00;25.60;17.10
20740;DHT22;10530;49.968;19.844;2023-06-26T17:44:04;25.50;19.30
20740;DHT22;10530;49.968;19.844;2023-06-26T17:49:07;25.10;27.20
20740;DHT22;10530;49.968;19.844;2023-06-26T17:54:10;24.80;33.40
20740;DHT22;10530;49.968;19.844;2023-06-26T17:59:14;24.50;29.70
20740;DHT22;10530;49.968;19.844;2023-06-26T18:04:17;24.00;54.20
20740;DHT22;10530;49.968;19.844;2023-06-26T18:09:20;23.30;99.90
20740;DHT22;10530;49.968;19.844;2023-06-26T18:14:23;23.00;99.90
20740;DHT22;10530;49.968;19.844;2023-06-26T18:19:26;22.60;99.90
20740;DHT22;10530;49.968;19.844;2023-06-26T18:24:30;22.10;99.90
20740;DHT22;10530;49.968;19.844;2023-06-26T18:29:32;21.70;99.90
20740;DHT22;10530;49.968;19.844;2023-06-26T18:34:37;21.20;99.90
20740;DHT22;10530;49.968;19.844;2023-06-26T18:39:40;21.00;99.90
20740;DHT22;10530;49.968;19.844;2023-06-26T18:44:46;20.70;99.90
20740;DHT22;10530;49.968;19.844;2023-06-26T18:49:49;20.40;99.90
20740;DHT22;10530;49.968;19.844;2023-06-26T18:54:52;20.20;99.90
20740;DHT22;10530;49.968;19.844;2023-06-26T18:59:55;20.00;99.90
20740;DHT22;10530;49.968;19.844;2023-06-26T19:04:58;19.90;99.90
20740;DHT22;10530;49.968;19.844;2023-06-26T19:10:01;19.80;99.90
20740;DHT22;10530;49.968;19.844;2023-06-26T19:15:06;19.60;99.90
20740;DHT22;10530;49.968;19.844;2023-06-26T19:20:09;19.40;99.90
20740;DHT22;10530;49.968;19.844;2023-06-26T19:25:13;19.20;99.90
20740;DHT22;10530;49.968;19.844;2023-06-26T19:30:16;18.90;99.90
20740;DHT22;10530;49.968;19.844;2023-06-26T19:35:19;18.90;99.90
20740;DHT22;10530;49.968;19.844;2023-06-26T19:40:25;18.70;99.90
20740;DHT22;10530;49.968;19.844;2023-06-26T19:45:30;18.60;99.90
20740;DHT22;10530;49.968;19.844;2023-06-26T19:50:33;18.50;99.90
20740;DHT22;10530;49.968;19.844;2023-06-26T19:55:36;18.40;99.90
20740;DHT22;10530;49.968;19.844;2023-06-26T20:00:39;18.40;99.90
20740;DHT22;10530;49.968;19.844;2023-06-26T20:05:42;18.40;99.90
20740;DHT22;10530;49.968;19.844;2023-06-26T20:10:46;18.30;99.90
20740;DHT22;10530;49.968;19.844;2023-06-26T20:15:48;18.10;99.90
20740;DHT22;10530;49.968;19.844;2023-06-26T20:20:51;18.00;99.90
20740;DHT22;10530;49.968;19.844;2023-06-26T20:25:54;17.80;99.90
20740;DHT22;10530;49.968;19.844;2023-06-26T20:30:57;17.80;99.90
20740;DHT22;10530;49.968;19.844;2023-06-26T20:36:01;17.60;99.90
20740;DHT22;10530;49.968;19.844;2023-06-26T20:41:04;17.70;99.90
20740;DHT22;10530;49.968;19.844;2023-06-26T20:46:08;17.80;99.90
20740;DHT22;10530;49.968;19.844;2023-06-26T20:51:12;17.60;99.90
20740;DHT22;10530;49.968;19.844;2023-06-26T20:56:15;17.50;99.90
20740;DHT22;10530;49.968;19.844;2023-06-26T21:01:19;17.60;99.90
20740;DHT22;10530;49.968;19.844;2023-06-26T21:06:22;17.60;99.90
20740;DHT22;10530;49.968;19.844;2023-06-26T21:11:25;17.90;99.90
20740;DHT22;10530;49.968;19.844;2023-06-26T21:16:28;17.90;99.90
20740;DHT22;10530;49.968;19.844;2023-06-26T21:21:31;17.80;99.90
20740;DHT22;10530;49.968;19.844;2023-06-26T21:26:34;17.80;99.90
20740;DHT22;10530;49.968;19.844;2023-06-26T21:31:37;17.60;99.90
20740;DHT22;10530;49.968;19.844;2023-06-26T21:36:40;17.60;99.90
20740;DHT22;10530;49.968;19.844;2023-06-26T21:41:43;17.40;99.90
20740;DHT22;10530;49.968;19.844;2023-06-26T21:46:46;17.40;99.90
20740;DHT22;10530;49.968;19.844;2023-06-26T21:51:50;17.30;99.90
20740;DHT22;10530;49.968;19.844;2023-06-26T21:56:53;17.60;99.90
20740;DHT22;10530;49.968;19.844;2023-06-26T22:01:57;17.80;99.90
20740;DHT22;10530;49.968;19.844;2023-06-26T22:07:00;17.90;99.90
20740;DHT22;10530;49.968;19.844;2023-06-26T22:12:03;17.90;99.90
20740;DHT22;10530;49.968;19.844;2023-06-26T22:17:07;17.80;99.90
20740;DHT22;10530;49.968;19.844;2023-06-26T22:22:10;17.70;99.90
20740;DHT22;10530;49.968;19.844;2023-06-26T22:27:13;17.60;99.90
20740;DHT22;10530;49.968;19.844;2023-06-26T22:32:16;17.70;99.90
20740;DHT22;10530;49.968;19.844;2023-06-26T22:37:19;17.70;99.90
20740;DHT22;10530;49.968;19.844;2023-06-26T22:42:22;17.60;99.90
20740;DHT22;10530;49.968;19.844;2023-06-26T22:47:25;17.60;99.90
20740;DHT22;10530;49.968;19.844;2023-06-26T22:52:28;17.70;99.90
20740;DHT22;10530;49.968;19.844;2023-06-26T22:57:34;17.70;99.90
20740;DHT22;10530;49.968;19.844;2023-06-26T23:02:38;17.70;99.90
20740;DHT22;10530;49.968;19.844;2023-06-26T23:07:42;17.70;99.90
20740;DHT22;10530;49.968;19.844;2023-06-26T23:12:45;17.70;99.90
20740;DHT22;10530;49.968;19.844;2023-06-26T23:17:48;17.60;99.90
20740;DHT22;10530;49.968;19.844;2023-06-26T23:22:51;17.70;99.90
20740;DHT22;10530;49.968;19.844;2023-06-26T23:27:54;17.70;99.90
20740;DHT22;10530;49.968;19.844;2023-06-26T23:33:03;17.70;99.90
20740;DHT22;10530;49.968;19.844;2023-06-26T23:38:10;17.60;99.90
20740;DHT22;10530;49.968;19.844;2023-06-26T23:43:13;17.70;99.90
20740;DHT22;10530;49.968;19.844;2023-06-26T23:48:16;17.70;99.90
20740;DHT22;10530;49.968;19.844;2023-06-26T23:53:19;17.60;99.90
20740;DHT22;10530;49.968;19.844;2023-06-26T23:58:22;17.60;99.90
